METAR Data
IDs: Format: Raw Decoded Include TAF

Data at: 1219 UTC 16 Feb 2019

PATK 161153Z AUTO 04003KT 10SM CLR M23/M26 A3016 RMK AO2 SLP223 T12281261 11206 21244 53007 TSNO
PATK 161053Z AUTO 00000KT 10SM CLR M23/M26 A3013 RMK AO2 SLP216 T12331261 TSNO
PATK 160953Z AUTO 00000KT 10SM CLR M23/M27 A3013 RMK AO2 SLP216 T12331267 TSNO
PATK 160853Z AUTO 00000KT 10SM CLR M22/M25 A3014 RMK AO2 SLP217 T12221250 410721283 53000 TSNO
PATK 160753Z AUTO 00000KT 10SM CLR M22/M25 A3013 RMK AO2 SLP216 T12171250 TSNO
PATK 160653Z AUTO 04003KT 10SM CLR M22/M25 A3013 RMK AO2 SLP218 T12221250 TSNO
PATK 160553Z AUTO 00000KT 10SM CLR M21/M24 A3013 RMK AO2 SLP218 T12111239 11072 21211 53023 TSNO
PATK 160453Z AUTO 00000KT 10SM CLR M19/M23 A3010 RMK AO2 SLP207 T11941228 TSNO
PATK 160353Z AUTO 00000KT 10SM CLR M17/M22 A3008 RMK AO2 SLP199 T11671217 TSNO
PATK 160253Z AUTO 00000KT 10SM CLR M13/M19 A3007 RMK AO2 SLP193 T11281194 53007 TSNO
PATK 160153Z 19004KT 10SM CLR M09/M19 A3005 RMK AO2 SLP188 T10891194
PATK 160053Z 20003KT 10SM CLR M07/M21 A3005 RMK AO2 SLP186 T10721206
PATK 152353Z 00000KT 10SM CLR M08/M21 A3005 RMK AO2 SLP185 I6000 T10831206 11083 21283 50004
PATK 152253Z 19003KT 10SM CLR M11/M21 A3005 RMK AO2 SLP188 T11111206
PATK 152153Z 04003KT 10SM CLR M12/M21 A3003 RMK AO2 SLP183 T11221206
PATK 152053Z 00000KT 10SM CLR M16/M22 A3003 RMK AO2 SLP183 I3000 T11611217 58000
PATK 151953Z 00000KT 10SM CLR M21/M24 A3005 RMK AO2 SLP188 T12061244
PATK 151853Z 03004KT 10SM CLR M25/M28 A3004 RMK AO2 SLP187 I1000 T12501278
PATK 151753Z 00000KT 10SM CLR M27/M30 A3004 RMK AO2 SLP185 T12721300 11189 21272 53005
PATK 151653Z AUTO 00000KT 10SM CLR M26/M28 A3002 RMK AO2 SLP177 T12561278 TSNO
PATK 151553Z AUTO 07004KT 10SM CLR M26/M29 A3002 RMK AO2 SLP179 T12561289 TSNO
PATK 151453Z AUTO 04003KT 10SM CLR M26/M28 A3002 RMK AO2 SLP177 T12561283 53005 TSNO
PATK 151353Z AUTO 00000KT 10SM CLR M24/M27 A3001 RMK AO2 SLP173 T12441272 TSNO
PATK 151253Z AUTO 04003KT 10SM CLR M24/M28 A3001 RMK AO2 SLP172 T12441278 TSNO
PATK 151153Z AUTO 05003KT 10SM CLR M21/M24 A3000 RMK AO2 SLP170 T12111244 11183 21239 51006 TSNO
PATK 151053Z AUTO VRB03KT 10SM CLR M23/M27 A3000 RMK AO2 SLP169 T12331267 TSNO
PATK 150953Z AUTO 03005KT 10SM CLR M23/M26 A3000 RMK AO2 SLP169 T12331261 TSNO
PATK 150853Z AUTO 09003KT 10SM CLR M23/M25 A2999 RMK AO2 SLP165 T12281250 410561228 53009 TSNO
PATK 150753Z AUTO 07004KT 10SM CLR M21/M24 A2997 RMK AO2 SLP159 T12111244 TSNO
PATK 150653Z AUTO 00000KT 10SM CLR M20/M24 A2996 RMK AO2 SLP156 T12001239 TSNO
PATK 150553Z AUTO 00000KT 10SM CLR M18/M22 A2996 RMK AO2 SLP156 T11831222 11056 21189 58013 TSNO
PATK 150453Z AUTO 00000KT 10SM CLR M16/M22 A2997 RMK AO2 SLP161 T11611217 TSNO
PATK 150353Z AUTO 30004KT 10SM CLR M15/M21 A3000 RMK AO2 SLP169 T11501206 TSNO
PATK 150253Z AUTO 00000KT 10SM CLR M11/M20 A3000 RMK AO2 SLP167 T11111200 50002 TSNO
PATK 150153Z 01004KT 10SM CLR M06/M18 A3001 RMK AO2 SLP170 T10611183
PATK 150053Z 35007KT 10SM CLR M06/M19 A3000 RMK AO2 SLP168 T10561189